Waynesburg, Ohio
Current Conditions -  °F | °C
As of 7:53 PM on Thursday 27 Nov 2014 (Local Time) from KPHD Reporting Station
Broken Clouds Broken Clouds  
Wind Chill: 25°   Ceiling: 5000
Heat Index: 30°   Visibility: 10mi
Dew Point: 25°   Wind: 5mph
Humidity: 82%   Direction: NA
Pressure: 30.25"   Gusts: NA
Location:  40.67°N, 81.26°W
Report Text: KPHD 280053Z AUTO VRB04KT 10SM FEW015 BKN050 M01/M04 A3025 RMK AO2 SNE26 SLP253 P0000 T10111039
Loading
Personal Weather Stations






























Interactive Weather Map New forecast layout! Learn more

10-Day Weather Forecast

Advertisements
Track Severe Weather on mobile